• Join FlightAware (Why Join?)
  • Login
  • US Flag 
08:01PM EST


 

Airport Tracker/Info


-or-


 

Live Flight TrackerFlight Track Log ✈ SWA268 ✈ 21-Apr-2013 ✈ KFLL - KTPA

Flight Track Log - Related Links

Times and Time Zones

All times are in EDT time to prevent confusion due to time zone crossing. See the SWA268 flight status page for this flight to view local times or setup timezone preferences in your user account.

Time Position Orientation Groundspeed Altitude Reporting Facility
EDT Latitude Longitude Course Direction KTS MPH feet Rate Location/Type
06:53PM 26.0750 -80.1389 83° East 162 186 600  Level Miami Center
06:54PM 26.0803 -80.0883 83° East 196 226 2,100 1,980 Climbing Miami Center
06:55PM 26.1372 -80.0550 28° Northeast 261 300 4,900 1,380 Climbing Miami Center
06:56PM 26.1922 -80.1236 312° West 279 321 5,200 1,620 Climbing Miami Center
06:57PM 26.2411 -80.1761 316° Northwest 276 318 8,100 2,640 Climbing Miami Center
06:59PM 26.3106 -80.2519 316° Northwest 286 329 11,000 1,260 Climbing Miami Center
07:00PM 26.3672 -80.3186 313° West 315 362 11,000 1,320 Level Miami Center
07:01PM 26.4406 -80.4019 315° West 333 383 13,700 2,820 Climbing Miami Center
07:02PM 26.4928 -80.4869 304° West 354 407 16,700 3,300 Climbing Miami Center
07:03PM 26.5547 -80.5911 304° West 363 418 20,400 2,640 Climbing Miami Center
07:04PM 26.6028 -80.6717 304° West 363 418 22,000 780 Climbing Miami Center
07:05PM 26.6672 -80.7689 307° West 358 412 22,000  Level Miami Center
07:06PM 26.7489 -80.8369 323° Northwest 353 406 22,000  Level Miami Center
07:07PM 26.8447 -80.9122 325° Northwest 372 428 22,000  Level Miami Center
07:08PM 26.9353 -80.9667 332° Northwest 377 434 22,000  Level Miami Center
07:09PM 27.0275 -81.0236 331° Northwest 372 428 22,000  Level Miami Center
07:10PM 27.1047 -81.0986 319° Northwest 372 428 22,000  Level Miami Center
07:11PM 27.1817 -81.1761 318° Northwest 367 422 22,000  Level Miami Center
07:12PM 27.2247 -81.2758 296° West 358 412 22,000 -480 Level Miami Center
07:13PM 27.2547 -81.3797 288° West 353 406 21,100 -1,020 Descending Miami Center
07:14PM 27.2847 -81.4906 287° West 348 400 20,000 -900 Descending Miami Center
07:15PM 27.3128 -81.5947 287° West 348 400 19,300 -960 Descending Miami Center
07:16PM 27.3383 -81.6983 286° West 343 395 18,100 -1,500 Descending Miami Center
07:17PM 27.3642 -81.8025 286° West 343 395 16,400 -1,740 Descending Miami Center
07:18PM 27.3919 -81.9017 288° West 343 395 14,700 -1,740 Descending Miami Center
07:19PM 27.4156 -82.0011 285° West 343 395 13,000 -1,680 Descending Miami Center
07:20PM 27.4414 -82.0958 287° West 332 382 11,400 -1,080 Descending Miami Center
07:21PM 27.4825 -82.1725 301° West 309 356 10,900 -300 Descending Miami Center
07:22PM 27.5264 -82.2261 313° West 293 337 10,900 -840 Level Miami Center
07:23PM 27.5903 -82.3017 314° West 282 325 9,300 -1,440 Descending Miami Center
07:24PM 27.6442 -82.3697 312° West 282 325 8,100 -1,140 Descending Miami Center
07:24PM 27.6667 -82.4000 310° West 272 313 7,700 -1,560 Descending Tampa TRACON
07:25PM 27.7333 -82.4667 318° Northwest 264 304 5,700 -1,320 Descending Tampa TRACON
07:26PM 27.7667 -82.5167 307° West 237 273 5,100 -900 Descending Tampa TRACON
07:27PM 27.8000 -82.5500 319° Northwest 194 223 4,000 -1,200 Descending Tampa TRACON
07:28PM 27.8500 -82.5500 360° North 169 194 2,700 -1,320 Descending Tampa TRACON
07:29PM 27.9000 -82.5500 360° North 142 163 1,300 -1,020 Descending Tampa TRACON
07:30PM 27.9333 -82.5500 360° North 133 153 600 -720 Descending Tampa TRACON
07:32PM 27.9755 -82.5332 69° East  Level Estimated
07:39PM 27.9755 -82.5332 190° South  Level Estimated
07:40PM 27.9755 -82.5332 190° South  Level Estimated